createdAt,value
2022-10-29T00:00:56.944Z,101550.44
2022-10-29T00:03:24.806Z,101557.59
2022-10-29T00:06:01.676Z,101544.16
2022-10-29T00:08:30.543Z,101546.03
2022-10-29T00:11:16.479Z,101559.44
2022-10-29T00:13:44.511Z,101557.69
2022-10-29T00:16:18.005Z,101562.94
2022-10-29T00:18:45.041Z,101569.22
2022-10-29T00:21:15.720Z,101566.53
2022-10-29T00:23:42.886Z,101565.56
2022-10-29T00:26:10.257Z,101571.81
2022-10-29T00:28:37.323Z,101582.63
2022-10-29T00:31:12.046Z,101567.34
2022-10-29T00:33:39.014Z,101567.34
2022-10-29T00:36:28.606Z,101570.97
2022-10-29T00:38:57.027Z,101576.34
2022-10-29T00:41:27.727Z,101567.44
2022-10-29T00:44:22.325Z,101568.38
2022-10-29T00:47:19.604Z,101571.16
2022-10-29T00:50:03.733Z,101575.72
2022-10-29T00:52:32.820Z,101584.78
2022-10-29T00:55:03.933Z,101581.25
2022-10-29T00:57:38.324Z,101586.72
2022-10-29T01:00:06.473Z,101580.59
2022-10-29T01:02:35.963Z,101579.69
2022-10-29T01:05:04.870Z,101575.22
2022-10-29T01:07:32.196Z,101585.97
2022-10-29T01:09:59.212Z,101580.59
2022-10-29T01:13:00.372Z,101592.31
2022-10-29T01:16:03.496Z,101589.69
2022-10-29T01:19:04.183Z,101579.84
2022-10-29T01:21:42.705Z,101584.31
2022-10-29T01:24:35.864Z,101578.03
2022-10-29T01:27:17.361Z,101579.00
2022-10-29T01:30:20.731Z,101578.03
2022-10-29T01:33:13.876Z,101591.56
2022-10-29T01:36:21.051Z,101588.03
2022-10-29T01:39:21.503Z,101586.19
2022-10-29T01:42:26.646Z,101577.28
2022-10-29T01:45:17.259Z,101589.88
2022-10-29T01:47:52.708Z,101591.63
2022-10-29T01:50:23.388Z,101581.81
2022-10-29T01:52:51.695Z,101589.00
2022-10-29T01:55:33.129Z,101585.41
2022-10-29T01:57:59.957Z,101589.06
2022-10-29T02:00:27.596Z,101572.13
2022-10-29T02:03:30.217Z,101572.22
2022-10-29T02:06:03.533Z,101574.13
2022-10-29T02:09:05.482Z,101584.97
2022-10-29T02:11:46.361Z,101586.81
2022-10-29T02:14:30.561Z,101591.38
2022-10-29T02:16:58.271Z,101589.59
2022-10-29T02:19:33.708Z,101586.91
2022-10-29T02:22:00.479Z,101585.13
2022-10-29T02:24:27.313Z,101570.81
2022-10-29T02:26:54.135Z,101572.56
2022-10-29T02:29:21.742Z,101590.53
2022-10-29T02:31:48.527Z,101585.13
2022-10-29T02:34:15.353Z,101585.13
2022-10-29T02:36:42.192Z,101575.25
2022-10-29T02:39:08.942Z,101564.50
2022-10-29T02:41:35.773Z,101558.22
2022-10-29T02:44:02.560Z,101557.34
2022-10-29T02:46:30.253Z,101550.25
2022-10-29T02:48:57.175Z,101546.75
2022-10-29T02:51:23.993Z,101545.94
2022-10-29T02:53:50.759Z,101542.50
2022-10-29T02:56:17.542Z,101535.44
2022-10-29T02:58:44.368Z,101540.94
2022-10-29T03:01:11.217Z,101544.72
2022-10-29T03:03:38.093Z,101539.47
2022-10-29T03:06:05.196Z,101545.91
2022-10-29T03:08:31.961Z,101541.56
2022-10-29T03:10:58.711Z,101539.94
2022-10-29T03:13:25.564Z,101542.75
2022-10-29T03:15:52.360Z,101535.72
2022-10-29T03:18:19.145Z,101534.09
2022-10-29T03:20:47.465Z,101534.19
2022-10-29T03:23:14.479Z,101533.41
2022-10-29T03:25:41.351Z,101542.47
2022-10-29T03:28:08.122Z,101531.84
2022-10-29T03:30:34.910Z,101535.47
2022-10-29T03:33:02.081Z,101536.50
2022-10-29T03:35:28.941Z,101532.13
2022-10-29T03:37:55.733Z,101538.53
2022-10-29T03:40:22.552Z,101529.66
2022-10-29T03:42:49.303Z,101520.84
2022-10-29T03:45:16.336Z,101532.56
2022-10-29T03:47:43.195Z,101523.78
2022-10-29T03:50:10.088Z,101518.50
2022-10-29T03:52:36.981Z,101533.81
2022-10-29T03:55:05.509Z,101534.81
2022-10-29T03:57:32.540Z,101538.47
2022-10-29T04:00:00.619Z,101548.44
2022-10-29T04:02:27.839Z,101551.16
2022-10-29T04:04:54.696Z,101550.38
2022-10-29T04:07:21.641Z,101552.22
2022-10-29T04:09:48.532Z,101548.69
2022-10-29T04:12:15.279Z,101549.63
2022-10-29T04:14:45.390Z,101547.91
2022-10-29T04:17:12.780Z,101554.25
2022-10-29T04:19:40.409Z,101554.28
2022-10-29T04:30:27.636Z,101563.59
2022-10-29T04:33:00.772Z,101559.19
2022-10-29T04:35:28.957Z,101553.84
2022-10-29T04:37:55.973Z,101553.91
2022-10-29T04:40:25.821Z,101557.50
2022-10-29T04:42:52.643Z,101553.09
2022-10-29T04:45:19.499Z,101566.53
2022-10-29T04:47:46.508Z,101565.63
2022-10-29T04:50:13.642Z,101563.84
2022-10-29T04:52:40.405Z,101562.94
2022-10-29T04:55:07.651Z,101569.22
2022-10-29T04:57:34.427Z,101571.91
2022-10-29T05:00:01.181Z,101568.38
2022-10-29T05:02:27.976Z,101563.91
2022-10-29T05:04:55.038Z,101575.56
2022-10-29T05:07:21.853Z,101570.25
2022-10-29T05:09:48.623Z,101572.06
2022-10-29T05:12:15.379Z,101557.75
2022-10-29T05:14:42.145Z,101561.34
2022-10-29T05:17:08.955Z,101554.25
2022-10-29T05:19:35.805Z,101562.38
2022-10-29T05:22:02.562Z,101562.41
2022-10-29T05:24:29.325Z,101556.22
2022-10-29T05:26:56.173Z,101550.91
2022-10-29T05:29:22.926Z,101553.63
2022-10-29T05:31:49.676Z,101551.91
2022-10-29T05:34:16.482Z,101557.31
2022-10-29T05:36:43.240Z,101560.03
2022-10-29T05:39:10.004Z,101552.91
2022-10-29T05:41:36.779Z,101553.78
2022-10-29T05:44:03.738Z,101549.31
2022-10-29T05:46:30.519Z,101554.63
2022-10-29T05:48:57.513Z,101550.19
2022-10-29T05:51:24.353Z,101553.72
2022-10-29T05:53:51.106Z,101561.75
2022-10-29T05:56:17.915Z,101564.34
2022-10-29T05:58:44.689Z,101570.53
2022-10-29T06:01:11.955Z,101572.25
2022-10-29T06:03:39.444Z,101573.06
2022-10-29T06:06:06.595Z,101579.28
2022-10-29T06:08:33.458Z,101568.47
2022-10-29T06:11:04.321Z,101574.66
2022-10-29T06:13:31.184Z,101572.84
2022-10-29T06:16:01.388Z,101571.88
2022-10-29T06:18:28.975Z,101572.72
2022-10-29T06:20:59.404Z,101580.75
2022-10-29T06:23:27.007Z,101581.63
2022-10-29T06:25:53.858Z,101590.50
2022-10-29T06:28:20.612Z,101595.84
2022-10-29T06:30:50.160Z,101584.16
2022-10-29T06:33:20.310Z,101582.34
2022-10-29T06:35:47.806Z,101598.38
2022-10-29T06:38:15.043Z,101591.19
2022-10-29T06:40:42.648Z,101605.44
2022-10-29T06:43:12.725Z,101594.69
2022-10-29T06:45:39.630Z,101599.09
2022-10-29T06:48:07.018Z,101604.44
2022-10-29T06:50:34.150Z,101601.66
2022-10-29T06:53:04.240Z,101597.13
2022-10-29T06:55:31.300Z,101600.66
2022-10-29T06:58:05.091Z,101590.75
2022-10-29T07:00:33.060Z,101574.66
2022-10-29T07:03:00.646Z,101580.91
2022-10-29T07:05:27.902Z,101591.66
2022-10-29T07:07:59.737Z,101581.78
2022-10-29T07:10:30.272Z,101577.25
2022-10-29T07:12:57.897Z,101574.56
2022-10-29T07:15:27.925Z,101577.28
2022-10-29T07:18:07.283Z,101579.91
2022-10-29T07:20:37.567Z,101572.72
2022-10-29T07:23:04.745Z,101566.47
2022-10-29T07:25:33.013Z,101573.59
2022-10-29T07:28:16.411Z,101581.63
2022-10-29T07:30:44.726Z,101581.63
2022-10-29T07:33:11.651Z,101579.84
2022-10-29T07:35:38.579Z,101583.44
2022-10-29T07:38:10.778Z,101588.81
2022-10-29T07:40:39.876Z,101585.25
2022-10-29T07:43:06.776Z,101581.69
2022-10-29T07:45:33.966Z,101589.69
2022-10-29T07:48:09.462Z,101597.75
2022-10-29T07:50:37.808Z,101578.00
2022-10-29T07:53:06.482Z,101573.50
2022-10-29T07:55:33.340Z,101571.66
2022-10-29T07:58:03.253Z,101575.19
2022-10-29T08:00:35.997Z,101564.34
2022-10-29T08:03:03.427Z,101558.03
2022-10-29T08:05:31.123Z,101565.09
2022-10-29T08:07:58.570Z,101563.19
2022-10-29T08:10:26.414Z,101560.38
2022-10-29T08:12:56.315Z,101571.81
2022-10-29T08:15:25.922Z,101561.84
2022-10-29T08:17:52.963Z,101566.09
2022-10-29T08:20:21.350Z,101569.50
2022-10-29T08:22:48.714Z,101576.41
2022-10-29T08:25:16.413Z,101565.50
2022-10-29T08:27:44.132Z,101568.06
2022-10-29T08:30:13.575Z,101569.56
2022-10-29T08:32:47.008Z,101563.94
2022-10-29T08:35:14.438Z,101555.72
2022-10-29T08:37:45.353Z,101561.78
2022-10-29T08:40:55.106Z,101571.50
2022-10-29T08:43:30.495Z,101577.66
2022-10-29T08:45:57.752Z,101580.25
2022-10-29T08:48:48.956Z,101581.03
2022-10-29T08:51:36.906Z,101568.44
2022-10-29T08:54:25.586Z,101570.13
2022-10-29T08:56:57.825Z,101559.16
2022-10-29T08:59:29.081Z,101562.59
2022-10-29T09:01:56.999Z,101573.19
2022-10-29T09:04:36.642Z,101565.78
2022-10-29T09:07:15.451Z,101570.03
2022-10-29T09:10:24.905Z,101568.00
2022-10-29T09:13:49.280Z,101561.34
2022-10-29T09:16:27.336Z,101554.81
2022-10-29T09:19:15.693Z,101542.84
2022-10-29T09:21:59.095Z,101541.75
2022-10-29T09:25:12.457Z,101547.81
2022-10-29T09:28:22.146Z,101555.66
2022-10-29T09:31:16.471Z,101551.06
2022-10-29T09:33:50.571Z,101550.84
2022-10-29T09:36:23.650Z,101559.69
2022-10-29T09:39:03.593Z,101560.38
2022-10-29T09:41:35.007Z,101554.78
2022-10-29T09:44:43.306Z,101552.81
2022-10-29T09:48:00.640Z,101557.19
2022-10-29T09:50:54.351Z,101554.47
2022-10-29T09:53:21.173Z,101557.13
2022-10-29T09:55:54.714Z,101565.06
2022-10-29T09:58:25.531Z,101555.09
2022-10-29T10:00:53.831Z,101562.97
2022-10-29T10:03:37.773Z,101552.94
2022-10-29T10:06:14.013Z,101547.41
2022-10-29T10:09:05.264Z,101545.50
2022-10-29T10:11:40.156Z,101546.28
2022-10-29T10:14:20.145Z,101544.31
2022-10-29T10:16:47.133Z,101533.50
2022-10-29T10:19:23.907Z,101532.41
2022-10-29T10:22:03.801Z,101525.03
2022-10-29T10:24:35.812Z,101523.13
2022-10-29T10:27:30.332Z,101522.34
2022-10-29T10:30:15.823Z,101510.78
2022-10-29T10:32:43.741Z,101516.16
2022-10-29T10:35:29.836Z,101520.69
2022-10-29T10:37:59.770Z,101520.69
2022-10-29T10:40:27.953Z,101524.19
2022-10-29T10:42:55.321Z,101518.69
2022-10-29T10:45:40.014Z,101523.97
2022-10-29T10:48:11.072Z,101516.94
2022-10-29T10:50:38.145Z,101514.41
2022-10-29T10:53:17.624Z,101510.69
2022-10-29T10:55:59.252Z,101491.00
2022-10-29T10:58:31.531Z,101485.66
2022-10-29T11:01:20.681Z,101484.81
2022-10-29T11:04:10.637Z,101491.22
2022-10-29T11:06:41.991Z,101487.63
2022-10-29T11:09:32.737Z,101477.72
2022-10-29T11:12:29.988Z,101481.34
2022-10-29T11:15:06.196Z,101478.63
2022-10-29T11:17:45.516Z,101464.97
2022-10-29T11:20:27.752Z,101468.38
2022-10-29T11:23:38.027Z,101463.94
2022-10-29T11:26:36.783Z,101456.63
2022-10-29T11:29:28.488Z,101450.28
2022-10-29T11:32:22.352Z,101455.69
2022-10-29T11:35:20.061Z,101444.00
2022-10-29T11:38:11.028Z,101441.28
2022-10-29T11:41:07.781Z,101443.91
2022-10-29T11:43:34.761Z,101444.69
2022-10-29T11:46:39.009Z,101443.63
2022-10-29T11:49:20.630Z,101435.41
2022-10-29T11:52:12.779Z,101426.25
2022-10-29T11:55:05.925Z,101433.19
2022-10-29T11:58:11.307Z,101433.06
2022-10-29T12:00:52.929Z,101440.25
2022-10-29T12:04:00.367Z,101447.09
2022-10-29T12:06:46.995Z,101436.97
2022-10-29T12:10:02.221Z,101424.09
2022-10-29T12:13:14.813Z,101415.69
2022-10-29T12:15:55.946Z,101416.34
2022-10-29T12:18:36.670Z,101414.22
2022-10-29T12:21:26.228Z,101405.88
2022-10-29T12:24:25.095Z,101405.75
2022-10-29T12:27:10.283Z,101394.78
2022-10-29T12:29:49.635Z,101394.69
2022-10-29T12:32:32.699Z,101387.47
2022-10-29T12:35:18.311Z,101385.56
2022-10-29T12:38:31.995Z,101380.16
2022-10-29T12:41:17.261Z,101367.47
2022-10-29T12:43:44.674Z,101371.81
2022-10-29T12:46:24.379Z,101374.31
2022-10-29T12:49:20.120Z,101370.59
2022-10-29T12:52:02.921Z,101352.50
2022-10-29T12:54:40.925Z,101353.50
2022-10-29T12:57:13.828Z,101352.75
2022-10-29T12:59:43.150Z,101347.50
2022-10-29T13:02:37.115Z,101342.09
2022-10-29T13:05:07.157Z,101359.19
2022-10-29T13:07:34.719Z,101361.81
2022-10-29T13:10:28.511Z,101354.38
2022-10-29T13:12:57.832Z,101349.91
2022-10-29T13:15:43.428Z,101350.75
2022-10-29T13:18:13.072Z,101336.28
2022-10-29T13:20:43.435Z,101341.56
2022-10-29T13:23:22.299Z,101341.41
2022-10-29T13:25:52.922Z,101343.19
2022-10-29T13:28:19.570Z,101337.78
2022-10-29T13:30:49.624Z,101353.06
2022-10-29T13:33:28.223Z,101353.00
2022-10-29T13:36:02.646Z,101352.13
2022-10-29T13:39:05.234Z,101357.78
2022-10-29T13:41:43.433Z,101366.81
2022-10-29T13:44:22.553Z,101364.13
2022-10-29T13:47:21.676Z,101360.63
2022-10-29T13:49:49.755Z,101366.03
2022-10-29T13:52:21.772Z,101362.28
2022-10-29T13:55:08.347Z,101364.94
2022-10-29T13:57:50.692Z,101357.72
2022-10-29T14:00:20.358Z,101350.50
2022-10-29T14:03:02.380Z,101363.03
2022-10-29T14:05:38.887Z,101364.00
2022-10-29T14:08:38.880Z,101367.66
2022-10-29T14:11:27.639Z,101364.94
2022-10-29T14:14:00.040Z,101361.31
2022-10-29T14:16:32.907Z,101356.84
2022-10-29T14:19:21.193Z,101352.38
2022-10-29T14:21:47.984Z,101351.63
2022-10-29T14:24:16.724Z,101339.94
2022-10-29T14:26:45.308Z,101341.69
2022-10-29T14:29:21.884Z,101328.03
2022-10-29T14:32:08.219Z,101337.19
2022-10-29T14:34:35.047Z,101345.34
2022-10-29T14:37:07.232Z,101339.09
2022-10-29T14:39:57.107Z,101341.94
2022-10-29T14:42:34.034Z,101334.91
2022-10-29T14:45:06.341Z,101335.06
2022-10-29T14:47:37.611Z,101336.94
2022-10-29T14:50:15.121Z,101334.28
2022-10-29T14:52:53.411Z,101330.78
2022-10-29T14:55:28.310Z,101344.34
2022-10-29T14:58:07.228Z,101336.53
2022-10-29T15:00:36.949Z,101333.81
2022-10-29T15:03:06.138Z,101334.66
2022-10-29T15:05:37.767Z,101319.44
2022-10-29T15:08:19.077Z,101321.25
2022-10-29T15:10:57.826Z,101316.78
2022-10-29T15:13:34.048Z,101321.38
2022-10-29T15:16:06.599Z,101324.19
2022-10-29T15:18:35.028Z,101318.06
2022-10-29T15:21:03.788Z,101315.50
2022-10-29T15:23:35.540Z,101307.56
2022-10-29T15:26:16.653Z,101313.09
2022-10-29T15:28:45.355Z,101311.41
2022-10-29T15:31:34.704Z,101313.31
2022-10-29T15:34:10.639Z,101309.03
2022-10-29T15:36:52.283Z,101304.75
2022-10-29T15:39:20.821Z,101310.44
2022-10-29T15:41:50.377Z,101305.31
2022-10-29T15:44:38.959Z,101321.69
2022-10-29T15:47:28.816Z,101314.94
2022-10-29T15:49:55.827Z,101316.97
2022-10-29T15:52:34.518Z,101319.00
2022-10-29T15:55:04.002Z,101321.22
2022-10-29T15:57:31.430Z,101321.41
2022-10-29T16:02:36.093Z,101321.91
2022-10-29T16:05:03.231Z,101322.13
2022-10-29T16:07:32.518Z,101315.22
2022-10-29T16:10:00.290Z,101315.41
2022-10-29T16:12:27.284Z,101313.81
2022-10-29T16:14:54.042Z,101314.84
2022-10-29T16:17:21.359Z,101312.41
2022-10-29T16:19:48.214Z,101320.66
2022-10-29T16:22:37.156Z,101319.97
2022-10-29T16:29:24.684Z,101324.03
2022-10-29T16:31:52.564Z,101302.66
2022-10-29T16:34:23.725Z,101304.56
2022-10-29T16:36:51.509Z,101313.66
2022-10-29T16:39:19.297Z,101312.81
2022-10-29T16:41:46.133Z,101295.84
2022-10-29T16:44:13.693Z,101309.34
2022-10-29T16:46:40.506Z,101302.22
2022-10-29T16:49:07.256Z,101312.16
2022-10-29T16:51:34.067Z,101314.91
2022-10-29T16:54:00.876Z,101312.31
2022-10-29T16:56:27.702Z,101315.94
2022-10-29T16:59:01.832Z,101322.25
2022-10-29T17:01:28.882Z,101312.72
2022-10-29T17:03:55.715Z,101314.53
2022-10-29T17:06:22.581Z,101314.59
2022-10-29T17:08:49.420Z,101310.19
2022-10-29T17:11:16.197Z,101318.38
2022-10-29T17:13:43.005Z,101315.78
2022-10-29T17:16:14.595Z,101318.63
2022-10-29T17:18:41.423Z,101313.31
2022-10-29T17:21:08.226Z,101317.06
2022-10-29T17:23:35.475Z,101328.81
2022-10-29T17:26:02.514Z,101311.91
2022-10-29T17:28:29.404Z,101308.34
2022-10-29T17:30:56.338Z,101307.47
2022-10-29T17:33:23.151Z,101303.09
2022-10-29T17:35:49.980Z,101312.06
2022-10-29T17:38:16.969Z,101310.31
2022-10-29T17:40:46.030Z,101300.53
2022-10-29T17:43:13.012Z,101306.84
2022-10-29T17:45:41.904Z,101304.22
2022-10-29T17:48:08.704Z,101299.81
2022-10-29T17:50:35.715Z,101297.19
2022-10-29T17:53:02.681Z,101295.44
2022-10-29T17:55:29.493Z,101308.03
2022-10-29T17:57:56.816Z,101295.59
2022-10-29T18:00:23.820Z,101304.66
2022-10-29T18:02:51.336Z,101309.19
2022-10-29T18:05:19.095Z,101310.16
2022-10-29T18:07:45.880Z,101307.59
2022-10-29T18:10:12.848Z,101306.75
2022-10-29T18:12:39.698Z,101314.84
2022-10-29T18:15:07.297Z,101309.59
2022-10-29T18:17:34.160Z,101316.75
2022-10-29T18:20:00.955Z,101309.69
2022-10-29T18:22:27.797Z,101317.78
2022-10-29T18:24:54.605Z,101313.41
2022-10-29T18:27:21.377Z,101313.44
2022-10-29T18:29:48.273Z,101313.47
2022-10-29T18:32:15.223Z,101315.34
2022-10-29T18:34:42.025Z,101307.34
2022-10-29T18:37:08.948Z,101314.63
2022-10-29T18:39:35.780Z,101311.13
2022-10-29T18:42:02.637Z,101301.31
2022-10-29T18:44:29.413Z,101302.31
2022-10-29T18:46:56.215Z,101304.16
2022-10-29T18:49:23.337Z,101305.94
2022-10-29T18:51:50.157Z,101306.03
2022-10-29T18:54:17.063Z,101302.50
2022-10-29T18:56:43.977Z,101306.19
2022-10-29T18:59:13.375Z,101301.78
2022-10-29T19:01:40.652Z,101304.53
2022-10-29T19:04:11.774Z,101310.91
2022-10-29T19:06:38.575Z,101314.56
2022-10-29T19:09:08.524Z,101309.19
2022-10-29T19:11:35.495Z,101312.84
2022-10-29T19:14:05.994Z,101319.16
2022-10-29T19:16:33.411Z,101311.19
2022-10-29T19:21:37.476Z,101309.50
2022-10-29T19:24:05.221Z,101318.47
2022-10-29T19:26:34.824Z,101313.09
2022-10-29T19:29:04.096Z,101309.59
2022-10-29T19:31:33.428Z,101313.19
2022-10-29T19:34:02.827Z,101306.06
2022-10-29T19:36:30.497Z,101297.19
2022-10-29T19:38:57.884Z,101299.00
2022-10-29T19:41:26.243Z,101291.88
2022-10-29T19:43:53.558Z,101304.47
2022-10-29T19:46:24.572Z,101305.41
2022-10-29T19:48:54.362Z,101308.19
2022-10-29T19:51:22.059Z,101299.25
2022-10-29T19:53:51.327Z,101304.72
2022-10-29T19:56:19.508Z,101303.88
2022-10-29T19:58:46.794Z,101306.56
2022-10-29T20:01:17.478Z,101302.16
2022-10-29T20:03:45.196Z,101301.38
2022-10-29T20:06:12.698Z,101299.63
2022-10-29T20:08:39.709Z,101305.06
2022-10-29T20:11:07.302Z,101304.25
2022-10-29T20:13:34.679Z,101312.38
2022-10-29T20:16:12.341Z,101307.06
2022-10-29T20:18:39.225Z,101309.84
2022-10-29T20:23:39.478Z,101305.50
2022-10-29T20:26:07.701Z,101311.84
2022-10-29T20:28:34.857Z,101313.69
2022-10-29T20:31:17.814Z,101317.38
2022-10-29T20:33:59.060Z,101312.09
2022-10-29T20:36:29.399Z,101309.50
2022-10-29T20:38:56.489Z,101293.44
2022-10-29T20:41:24.026Z,101296.19
2022-10-29T20:43:57.491Z,101288.16
2022-10-29T20:46:25.533Z,101286.44
2022-10-29T20:48:52.707Z,101286.53
2022-10-29T20:51:19.772Z,101284.75
2022-10-29T20:53:46.565Z,101291.13
2022-10-29T20:56:16.211Z,101302.81
2022-10-29T20:58:43.774Z,101301.09
2022-10-29T21:01:14.052Z,101297.56
2022-10-29T21:03:41.783Z,101288.72
2022-10-29T21:06:16.811Z,101294.19
2022-10-29T21:08:45.598Z,101288.91
2022-10-29T21:11:14.703Z,101280.00
2022-10-29T21:13:41.837Z,101280.97
2022-10-29T21:16:21.455Z,101272.13
2022-10-29T21:18:51.284Z,101277.50
2022-10-29T21:21:18.850Z,101281.16
2022-10-29T21:23:45.892Z,101275.84
2022-10-29T21:26:17.436Z,101278.59
2022-10-29T21:28:44.322Z,101282.19
2022-10-29T21:31:11.438Z,101281.41
2022-10-29T21:33:38.532Z,101271.56
2022-10-29T21:36:06.033Z,101269.78
2022-10-29T21:38:33.459Z,101271.56
2022-10-29T21:41:02.073Z,101266.19
2022-10-29T21:43:29.049Z,101272.44
2022-10-29T21:45:55.925Z,101276.94
2022-10-29T21:48:26.786Z,101260.84
2022-10-29T21:51:06.806Z,101264.41
2022-10-29T21:53:34.487Z,101269.78
2022-10-29T21:56:04.747Z,101275.16
2022-10-29T21:58:32.076Z,101262.66
2022-10-29T22:01:25.275Z,101262.66
2022-10-29T22:03:52.176Z,101244.78
2022-10-29T22:06:21.510Z,101246.56
2022-10-29T22:08:54.127Z,101248.31
2022-10-29T22:11:21.394Z,101245.66
2022-10-29T22:13:48.213Z,101242.97
2022-10-29T22:16:15.571Z,101239.38
2022-10-29T22:18:42.523Z,101234.91
2022-10-29T22:21:15.360Z,101235.78
2022-10-29T22:23:51.340Z,101226.88
2022-10-29T22:26:22.331Z,101232.25
2022-10-29T22:28:49.925Z,101227.78
2022-10-29T22:31:18.818Z,101220.72
2022-10-29T22:33:46.454Z,101223.41
2022-10-29T22:36:26.013Z,101227.00
2022-10-29T22:38:57.201Z,101227.06
2022-10-29T22:41:28.110Z,101227.97
2022-10-29T22:43:55.663Z,101221.72
2022-10-29T22:46:22.524Z,101220.84
2022-10-29T22:48:49.384Z,101209.25
2022-10-29T22:51:22.489Z,101204.75
2022-10-29T22:53:51.090Z,101193.16
2022-10-29T22:56:36.437Z,101194.03
2022-10-29T22:59:07.061Z,101192.22
2022-10-29T23:01:40.332Z,101191.31
2022-10-29T23:04:10.903Z,101187.72
2022-10-29T23:06:37.684Z,101176.94
2022-10-29T23:09:04.447Z,101170.63
2022-10-29T23:11:34.828Z,101182.19
2022-10-29T23:14:02.516Z,101179.47
2022-10-29T23:16:32.108Z,101180.28
2022-10-29T23:19:01.743Z,101183.81
2022-10-29T23:21:29.644Z,101180.25
2022-10-29T23:23:56.811Z,101182.94
2022-10-29T23:26:24.946Z,101188.28
2022-10-29T23:28:52.169Z,101180.25
2022-10-29T23:31:25.620Z,101183.81
2022-10-29T23:33:54.926Z,101178.47
2022-10-29T23:36:23.893Z,101178.47
2022-10-29T23:38:58.241Z,101165.97
2022-10-29T23:41:29.464Z,101171.31
2022-10-29T23:43:56.672Z,101176.69
2022-10-29T23:46:23.915Z,101174.03
2022-10-29T23:48:50.756Z,101169.56
2022-10-29T23:51:17.666Z,101179.38
2022-10-29T23:53:44.526Z,101181.13
2022-10-29T23:56:11.386Z,101189.19
2022-10-29T23:58:38.156Z,101183.81
